createdAt,value
2018-04-25T00:00:07.584Z,6.70
2018-04-25T00:00:38.826Z,6.93
2018-04-25T00:01:10.038Z,6.78
2018-04-25T00:01:41.244Z,6.65
2018-04-25T00:02:12.445Z,6.57
2018-04-25T00:02:43.653Z,6.45
2018-04-25T00:03:14.865Z,6.82
2018-04-25T00:03:46.081Z,6.97
2018-04-25T00:04:17.341Z,6.43
2018-04-25T00:04:48.560Z,6.80
2018-04-25T00:05:19.784Z,6.40
2018-04-25T00:05:50.982Z,6.32
2018-04-25T00:06:22.174Z,6.12
2018-04-25T00:06:53.392Z,6.80
2018-04-25T00:07:24.611Z,6.35
2018-04-25T00:07:55.817Z,6.60
2018-04-25T00:08:27.043Z,6.05
2018-04-25T00:08:58.285Z,5.90
2018-04-25T00:09:29.490Z,6.07
2018-04-25T00:10:00.701Z,5.97
2018-04-25T00:10:31.918Z,5.82
2018-04-25T00:11:03.121Z,6.22
2018-04-25T00:11:34.383Z,5.53
2018-04-25T00:12:05.603Z,5.72
2018-04-25T00:12:36.852Z,5.57
2018-04-25T00:13:08.064Z,5.50
2018-04-25T00:13:39.276Z,5.60
2018-04-25T00:14:10.485Z,5.80
2018-04-25T00:14:41.684Z,6.00
2018-04-25T00:15:12.897Z,5.57
2018-04-25T00:15:44.110Z,6.35
2018-04-25T00:16:15.327Z,5.20
2018-04-25T00:16:46.606Z,6.10
2018-04-25T00:17:17.864Z,5.47
2018-04-25T00:17:49.074Z,5.32
2018-04-25T00:18:20.319Z,5.20
2018-04-25T00:18:51.538Z,5.50
2018-04-25T00:19:22.754Z,5.12
2018-04-25T00:19:53.986Z,5.45
2018-04-25T00:20:25.208Z,5.97
2018-04-25T00:20:56.451Z,5.22
2018-04-25T00:21:27.671Z,6.00
2018-04-25T00:21:58.878Z,5.70
2018-04-25T00:22:30.094Z,5.95
2018-04-25T00:23:01.297Z,6.40
2018-04-25T00:23:32.552Z,6.07
2018-04-25T00:24:03.753Z,5.72
2018-04-25T00:24:34.993Z,5.68
2018-04-25T00:25:06.201Z,5.78
2018-04-25T00:25:37.405Z,6.07
2018-04-25T00:26:08.701Z,5.75
2018-04-25T00:26:39.919Z,6.50
2018-04-25T00:27:11.151Z,5.72
2018-04-25T00:27:42.359Z,5.82
2018-04-25T00:28:13.561Z,6.20
2018-04-25T00:28:44.804Z,5.93
2018-04-25T00:29:16.008Z,6.65
2018-04-25T00:29:48.914Z,6.72
2018-04-25T00:30:20.128Z,6.05
2018-04-25T00:31:27.241Z,6.03
2018-04-25T00:31:58.538Z,5.82
2018-04-25T00:32:29.739Z,5.90
2018-04-25T00:33:00.956Z,5.90
2018-04-25T00:33:32.146Z,5.45
2018-04-25T00:34:03.341Z,6.25
2018-04-25T00:34:34.581Z,5.95
2018-04-25T00:35:05.798Z,5.15
2018-04-25T00:35:37.018Z,5.05
2018-04-25T00:36:08.224Z,4.90
2018-04-25T00:36:39.438Z,5.10
2018-04-25T00:37:10.759Z,4.78
2018-04-25T00:37:42.000Z,5.43
2018-04-25T00:38:13.200Z,5.50
2018-04-25T00:38:44.410Z,5.65
2018-04-25T00:39:15.615Z,5.40
2018-04-25T00:39:46.923Z,5.60
2018-04-25T00:40:18.136Z,5.70
2018-04-25T00:40:49.349Z,5.70
2018-04-25T00:41:20.553Z,5.55
2018-04-25T00:41:51.780Z,5.70
2018-04-25T00:42:23.036Z,6.00
2018-04-25T00:42:54.268Z,5.75
2018-04-25T00:43:25.480Z,5.22
2018-04-25T00:43:56.682Z,5.05
2018-04-25T00:44:27.903Z,4.95
2018-04-25T00:44:59.100Z,5.45
2018-04-25T00:45:30.304Z,5.87
2018-04-25T00:46:01.509Z,5.47
2018-04-25T00:46:32.710Z,5.53
2018-04-25T00:47:03.954Z,4.78
2018-04-25T00:47:35.144Z,4.80
2018-04-25T00:48:06.349Z,4.93
2018-04-25T00:48:37.558Z,4.90
2018-04-25T00:49:08.770Z,5.93
2018-04-25T00:49:39.990Z,6.10
2018-04-25T00:50:11.270Z,6.15
2018-04-25T00:50:42.481Z,6.97
2018-04-25T00:51:13.710Z,7.22
2018-04-25T00:51:46.946Z,6.95
2018-04-25T00:52:18.170Z,7.70
2018-04-25T00:52:49.375Z,7.15
2018-04-25T00:53:20.580Z,7.68
2018-04-25T00:53:51.783Z,7.60
2018-04-25T00:54:23.017Z,7.72
2018-04-25T00:54:54.227Z,7.15
2018-04-25T00:55:25.476Z,7.30
2018-04-25T00:55:56.733Z,7.45
2018-04-25T00:56:28.953Z,8.10
2018-04-25T00:57:00.253Z,8.38
2018-04-25T00:57:31.435Z,9.05
2018-04-25T00:58:02.655Z,9.70
2018-04-25T00:58:33.869Z,9.80
2018-04-25T00:59:05.085Z,10.18
2018-04-25T00:59:37.116Z,10.57
2018-04-25T01:00:08.324Z,10.75
2018-04-25T01:00:39.579Z,10.73
2018-04-25T01:01:10.793Z,11.55
2018-04-25T01:01:42.012Z,12.30
2018-04-25T01:02:13.213Z,12.40
2018-04-25T01:02:44.430Z,11.55
2018-04-25T01:03:15.656Z,12.57
2018-04-25T01:03:46.872Z,11.75
2018-04-25T01:04:18.142Z,11.70
2018-04-25T01:04:49.365Z,11.82
2018-04-25T01:05:20.574Z,11.60
2018-04-25T01:05:51.782Z,11.55
2018-04-25T01:06:22.985Z,11.38
2018-04-25T01:06:54.186Z,11.77
2018-04-25T01:07:25.396Z,11.05
2018-04-25T01:07:56.606Z,12.00
2018-04-25T01:08:27.830Z,11.82
2018-04-25T01:08:59.045Z,11.80
2018-04-25T01:09:30.327Z,12.02
2018-04-25T01:10:01.533Z,12.45
2018-04-25T01:10:32.787Z,11.38
2018-04-25T01:11:03.997Z,11.80
2018-04-25T01:11:35.224Z,11.05
2018-04-25T01:12:06.461Z,11.50
2018-04-25T01:12:37.692Z,10.75
2018-04-25T01:13:08.933Z,9.85
2018-04-25T01:13:40.134Z,11.52
2018-04-25T01:14:11.344Z,9.45
2018-04-25T01:14:42.600Z,9.50
2018-04-25T01:15:13.803Z,11.27
2018-04-25T01:15:45.022Z,10.60
2018-04-25T01:16:16.236Z,8.98
2018-04-25T01:16:47.461Z,10.95
2018-04-25T01:17:18.708Z,10.23
2018-04-25T01:17:49.898Z,10.40
2018-04-25T01:18:21.110Z,10.13
2018-04-25T01:18:52.327Z,10.43
2018-04-25T01:19:23.609Z,10.13
2018-04-25T01:19:54.830Z,10.57
2018-04-25T01:20:26.033Z,10.65
2018-04-25T01:20:57.258Z,11.38
2018-04-25T01:21:28.506Z,11.10
2018-04-25T01:21:59.704Z,10.57
2018-04-25T01:22:30.910Z,11.50
2018-04-25T01:23:02.121Z,11.15
2018-04-25T01:23:33.331Z,10.98
2018-04-25T01:24:04.602Z,11.00
2018-04-25T01:24:35.817Z,10.00
2018-04-25T01:25:07.050Z,10.90
2018-04-25T01:25:38.261Z,10.00
2018-04-25T01:26:09.476Z,11.77
2018-04-25T01:26:40.685Z,9.98
2018-04-25T01:27:11.928Z,11.35
2018-04-25T01:27:43.132Z,11.10
2018-04-25T01:28:14.362Z,10.82
2018-04-25T01:28:45.572Z,11.38
2018-04-25T01:29:16.820Z,11.00
2018-04-25T01:29:48.074Z,9.73
2018-04-25T01:30:19.289Z,11.35
2018-04-25T01:30:50.506Z,11.93
2018-04-25T01:31:21.735Z,11.63
2018-04-25T01:31:52.942Z,10.48
2018-04-25T01:32:24.209Z,11.52
2018-04-25T01:32:55.434Z,12.10
2018-04-25T01:33:26.688Z,12.35
2018-04-25T01:33:57.900Z,11.35
2018-04-25T01:34:29.104Z,12.35
2018-04-25T01:35:00.384Z,12.80
2018-04-25T01:35:31.597Z,11.55
2018-04-25T01:36:02.800Z,11.77
2018-04-25T01:36:34.009Z,13.57
2018-04-25T01:37:05.213Z,12.23
2018-04-25T01:37:36.424Z,14.40
2018-04-25T01:38:07.632Z,16.23
2018-04-25T01:38:38.883Z,15.77
2018-04-25T01:39:10.094Z,25.62
2018-04-25T01:39:41.301Z,19.73
2018-04-25T01:40:12.508Z,22.25
2018-04-25T01:40:43.719Z,20.65
2018-04-25T01:41:14.937Z,23.35
2018-04-25T01:41:46.148Z,23.23
2018-04-25T01:42:17.360Z,23.77
2018-04-25T01:42:48.589Z,23.67
2018-04-25T01:43:19.847Z,22.10
2018-04-25T01:43:51.056Z,21.65
2018-04-25T01:44:22.279Z,21.55
2018-04-25T01:44:53.514Z,21.58
2018-04-25T01:45:24.721Z,16.70
2018-04-25T01:45:55.928Z,15.93
2018-04-25T01:46:27.147Z,15.63
2018-04-25T01:46:58.385Z,14.57
2018-04-25T01:47:29.600Z,13.95
2018-04-25T01:48:00.813Z,16.12
2018-04-25T01:48:32.049Z,15.25
2018-04-25T01:49:03.280Z,12.65
2018-04-25T01:49:34.497Z,15.07
2018-04-25T01:50:06.488Z,16.10
2018-04-25T01:50:37.732Z,14.70
2018-04-25T01:51:08.985Z,11.70
2018-04-25T01:51:40.238Z,13.50
2018-04-25T01:52:11.460Z,13.88
2018-04-25T01:52:42.680Z,13.98
2018-04-25T01:53:13.882Z,14.50
2018-04-25T01:53:45.090Z,14.90
2018-04-25T01:54:16.362Z,11.02
2018-04-25T01:54:47.582Z,12.60
2018-04-25T01:55:18.793Z,13.52
2018-04-25T01:55:50.024Z,13.35
2018-04-25T01:56:21.232Z,12.50
2018-04-25T01:56:52.484Z,14.23
2018-04-25T01:57:23.681Z,13.48
2018-04-25T01:57:54.899Z,15.52
2018-04-25T01:58:26.107Z,14.60
2018-04-25T01:58:57.312Z,13.43
2018-04-25T01:59:28.519Z,13.95
2018-04-25T01:59:59.801Z,13.00
2018-04-25T02:00:31.026Z,13.40
2018-04-25T02:01:02.277Z,12.77
2018-04-25T02:01:33.494Z,13.70
2018-04-25T02:02:04.714Z,11.82
2018-04-25T02:02:35.962Z,12.48
2018-04-25T02:03:07.172Z,13.30
2018-04-25T02:03:38.385Z,13.52
2018-04-25T02:04:09.604Z,11.65
2018-04-25T02:04:40.809Z,13.02
2018-04-25T02:05:12.069Z,12.95
2018-04-25T02:05:43.276Z,12.60
2018-04-25T02:06:14.475Z,13.32
2018-04-25T02:06:45.698Z,10.73
2018-04-25T02:07:16.895Z,13.73
2018-04-25T02:07:48.115Z,13.18
2018-04-25T02:08:19.346Z,14.10
2018-04-25T02:08:50.775Z,14.75
2018-04-25T02:09:22.006Z,13.27
2018-04-25T02:09:53.217Z,15.15
2018-04-25T02:10:24.429Z,14.60
2018-04-25T02:10:55.637Z,13.88
2018-04-25T02:11:26.851Z,14.65
2018-04-25T02:11:58.103Z,14.40
2018-04-25T02:12:29.352Z,14.23
2018-04-25T02:13:00.561Z,14.10
2018-04-25T02:13:31.792Z,14.52
2018-04-25T02:14:03.005Z,15.45
2018-04-25T02:14:34.213Z,14.45
2018-04-25T02:15:05.446Z,15.90
2018-04-25T02:15:36.671Z,15.52
2018-04-25T02:16:07.886Z,12.73
2018-04-25T02:16:39.128Z,12.13
2018-04-25T02:17:10.338Z,11.98
2018-04-25T02:17:41.556Z,14.00
2018-04-25T02:18:12.772Z,12.27
2018-04-25T02:18:44.036Z,12.88
2018-04-25T02:19:15.240Z,14.02
2018-04-25T02:19:46.505Z,14.70
2018-04-25T02:20:18.434Z,14.68
2018-04-25T02:20:49.642Z,14.82
2018-04-25T02:21:20.853Z,14.20
2018-04-25T02:21:52.052Z,13.73
2018-04-25T02:22:23.269Z,12.68
2018-04-25T02:22:55.486Z,12.82
2018-04-25T02:23:26.699Z,12.60
2018-04-25T02:23:57.944Z,12.48
2018-04-25T02:24:29.157Z,11.48
2018-04-25T02:25:00.393Z,11.70
2018-04-25T02:25:31.636Z,12.60
2018-04-25T02:26:02.877Z,13.15
2018-04-25T02:26:34.086Z,12.77
2018-04-25T02:27:05.288Z,13.85
2018-04-25T02:27:36.478Z,13.15
2018-04-25T02:28:07.692Z,12.35
2018-04-25T02:28:38.953Z,12.63
2018-04-25T02:29:10.162Z,11.95
2018-04-25T02:29:41.369Z,12.05
2018-04-25T02:30:12.590Z,11.65
2018-04-25T02:30:43.811Z,13.45
2018-04-25T02:31:15.022Z,11.45
2018-04-25T02:31:46.227Z,11.93
2018-04-25T02:32:17.437Z,11.68
2018-04-25T02:32:48.671Z,12.00
2018-04-25T02:33:19.879Z,12.55
2018-04-25T02:33:51.145Z,11.88
2018-04-25T02:34:22.362Z,11.43
2018-04-25T02:34:53.611Z,11.25
2018-04-25T02:35:24.834Z,11.32
2018-04-25T02:35:56.059Z,12.32
2018-04-25T02:36:27.278Z,12.35
2018-04-25T02:36:58.516Z,13.23
2018-04-25T02:37:29.731Z,13.02
2018-04-25T02:38:00.943Z,13.00
2018-04-25T02:38:32.154Z,13.00
2018-04-25T02:39:03.403Z,13.07
2018-04-25T02:39:34.645Z,13.23
2018-04-25T02:40:05.869Z,13.80
2018-04-25T02:40:37.080Z,13.65
2018-04-25T02:41:08.295Z,13.05
2018-04-25T02:41:39.522Z,13.82
2018-04-25T02:42:10.765Z,13.20
2018-04-25T02:42:41.988Z,13.50
2018-04-25T02:43:13.206Z,14.18
2018-04-25T02:43:44.417Z,13.70
2018-04-25T02:44:15.657Z,13.65
2018-04-25T02:44:46.921Z,14.23
2018-04-25T02:45:18.146Z,14.00
2018-04-25T02:45:49.404Z,12.45
2018-04-25T02:46:20.616Z,12.85
2018-04-25T02:46:51.834Z,13.35
2018-04-25T02:47:23.041Z,12.77
2018-04-25T02:47:54.279Z,13.68
2018-04-25T02:48:25.525Z,14.02
2018-04-25T02:48:56.740Z,12.95
2018-04-25T02:49:27.961Z,12.25
2018-04-25T02:49:59.177Z,12.05
2018-04-25T02:50:30.421Z,12.37
2018-04-25T02:51:01.635Z,13.52
2018-04-25T02:51:32.844Z,13.50
2018-04-25T02:52:04.031Z,13.27
2018-04-25T02:52:35.233Z,13.43
2018-04-25T02:53:06.441Z,12.90
2018-04-25T02:53:37.649Z,13.18
2018-04-25T02:54:09.277Z,12.75
2018-04-25T02:54:40.486Z,12.90
2018-04-25T02:55:11.737Z,13.23
2018-04-25T02:55:42.957Z,13.13
2018-04-25T02:56:14.158Z,12.65
2018-04-25T02:56:45.364Z,12.52
2018-04-25T02:57:16.583Z,12.57
2018-04-25T02:57:47.833Z,12.80
2018-04-25T02:58:19.047Z,13.35
2018-04-25T02:58:50.289Z,12.10
2018-04-25T02:59:21.523Z,13.05
2018-04-25T02:59:52.729Z,11.93
2018-04-25T03:00:23.949Z,12.37
2018-04-25T03:00:55.171Z,12.52
2018-04-25T03:01:26.363Z,12.93
2018-04-25T03:01:57.568Z,13.18
2018-04-25T03:02:28.825Z,12.55
2018-04-25T03:03:00.047Z,11.75
2018-04-25T03:03:31.257Z,12.05
2018-04-25T03:04:02.477Z,12.55
2018-04-25T03:04:33.691Z,12.90
2018-04-25T03:05:04.893Z,12.43
2018-04-25T03:05:36.106Z,12.32
2018-04-25T03:06:07.355Z,12.10
2018-04-25T03:06:38.578Z,13.27
2018-04-25T03:07:09.785Z,11.88
2018-04-25T03:07:40.992Z,12.77
2018-04-25T03:08:12.201Z,13.23
2018-04-25T03:08:44.076Z,13.05
2018-04-25T03:09:15.295Z,12.75
2018-04-25T03:09:46.512Z,13.40
2018-04-25T03:10:17.737Z,13.23
2018-04-25T03:10:48.992Z,13.50
2018-04-25T03:11:20.209Z,13.43
2018-04-25T03:11:51.431Z,13.23
2018-04-25T03:12:22.646Z,13.15
2018-04-25T03:12:53.887Z,12.93
2018-04-25T03:13:25.124Z,12.60
2018-04-25T03:13:56.339Z,12.90
2018-04-25T03:14:27.538Z,12.88
2018-04-25T03:14:58.804Z,13.25
2018-04-25T03:15:30.008Z,13.30
2018-04-25T03:16:01.216Z,13.73
2018-04-25T03:16:32.429Z,13.70
2018-04-25T03:17:03.659Z,13.40
2018-04-25T03:17:34.855Z,13.68
2018-04-25T03:18:06.057Z,14.13
2018-04-25T03:18:37.284Z,14.57
2018-04-25T03:19:08.511Z,16.42
2018-04-25T03:19:39.731Z,19.10
2018-04-25T03:20:10.993Z,20.95
2018-04-25T03:20:42.212Z,19.60
2018-04-25T03:21:13.394Z,18.37
2018-04-25T03:21:44.604Z,15.82
2018-04-25T03:22:15.852Z,15.18
2018-04-25T03:22:47.065Z,16.48
2018-04-25T03:23:18.268Z,16.55
2018-04-25T03:23:49.478Z,15.95
2018-04-25T03:24:20.699Z,16.48
2018-04-25T03:24:51.917Z,15.93
2018-04-25T03:25:23.173Z,15.50
2018-04-25T03:25:54.395Z,15.45
2018-04-25T03:26:25.687Z,16.50
2018-04-25T03:26:57.012Z,16.62
2018-04-25T03:27:28.253Z,16.30
2018-04-25T03:27:59.571Z,15.60
2018-04-25T03:28:30.892Z,15.27
2018-04-25T03:29:03.214Z,15.95
2018-04-25T03:29:34.421Z,15.60
2018-04-25T03:30:05.638Z,16.12
2018-04-25T03:30:37.427Z,15.90
2018-04-25T03:31:08.630Z,15.27
2018-04-25T03:31:39.829Z,15.77
2018-04-25T03:32:11.050Z,15.25
2018-04-25T03:32:42.303Z,15.45
2018-04-25T03:33:13.533Z,14.38
2018-04-25T03:33:44.775Z,14.68
2018-04-25T03:34:16.011Z,14.07
2018-04-25T03:34:47.221Z,14.75
2018-04-25T03:35:18.443Z,13.52
2018-04-25T03:35:49.659Z,12.68
2018-04-25T03:36:20.873Z,11.68
2018-04-25T03:36:52.084Z,11.48
2018-04-25T03:37:23.336Z,11.70
2018-04-25T03:37:54.592Z,10.35
2018-04-25T03:38:25.808Z,11.02
2018-04-25T03:38:57.028Z,10.48
2018-04-25T03:39:28.240Z,10.75
2018-04-25T03:39:59.455Z,11.05
2018-04-25T03:40:30.690Z,10.32
2018-04-25T03:41:01.965Z,11.77
2018-04-25T03:41:33.169Z,12.07
2018-04-25T03:42:04.447Z,12.48
2018-04-25T03:42:35.677Z,11.90
2018-04-25T03:43:06.897Z,11.88
2018-04-25T03:43:38.090Z,11.80
2018-04-25T03:44:09.296Z,12.18
2018-04-25T03:44:40.494Z,12.13
2018-04-25T03:45:11.701Z,12.32
2018-04-25T03:45:42.923Z,11.68
2018-04-25T03:46:14.152Z,12.23
2018-04-25T03:46:46.158Z,12.82
2018-04-25T03:47:17.452Z,11.93
2018-04-25T03:47:48.857Z,12.18
2018-04-25T03:48:20.217Z,12.45
2018-04-25T03:48:51.452Z,12.50
2018-04-25T03:49:22.676Z,12.52
2018-04-25T03:49:53.894Z,11.85
2018-04-25T03:50:25.126Z,11.95
2018-04-25T03:50:56.347Z,11.68
2018-04-25T03:51:27.559Z,12.13
2018-04-25T03:51:58.770Z,12.55
2018-04-25T03:52:30.023Z,11.77
2018-04-25T03:53:01.257Z,12.60
2018-04-25T03:53:32.521Z,12.13
2018-04-25T03:54:03.725Z,12.50
2018-04-25T03:54:34.926Z,11.52
2018-04-25T03:55:06.136Z,12.80
2018-04-25T03:55:37.360Z,12.37
2018-04-25T03:56:08.570Z,12.57
2018-04-25T03:56:39.792Z,13.02
2018-04-25T03:57:11.017Z,12.20
2018-04-25T03:57:42.261Z,12.15
2018-04-25T03:58:13.476Z,13.38
2018-04-25T03:58:44.694Z,13.15
2018-04-25T03:59:15.901Z,12.27
2018-04-25T03:59:47.113Z,12.43
2018-04-25T04:00:18.307Z,12.13
2018-04-25T04:00:49.513Z,12.60
2018-04-25T04:01:20.758Z,12.55
2018-04-25T04:01:51.969Z,11.75
2018-04-25T04:02:23.189Z,11.05
2018-04-25T04:02:54.415Z,12.25
2018-04-25T04:03:25.629Z,11.60
2018-04-25T04:03:56.838Z,11.70
2018-04-25T04:04:28.038Z,12.40
2018-04-25T04:04:59.272Z,12.10
2018-04-25T04:05:30.481Z,11.98
2018-04-25T04:06:01.729Z,11.50
2018-04-25T04:06:32.929Z,12.25
2018-04-25T04:07:04.191Z,12.27
2018-04-25T04:07:35.404Z,11.73
2018-04-25T04:08:06.616Z,12.00
2018-04-25T04:08:37.828Z,11.90
2018-04-25T04:09:09.048Z,11.98
2018-04-25T04:09:40.309Z,13.02
2018-04-25T04:10:11.526Z,12.77
2018-04-25T04:10:42.754Z,12.48
2018-04-25T04:11:14.781Z,13.15
2018-04-25T04:11:46.033Z,14.13
2018-04-25T04:12:17.261Z,13.18
2018-04-25T04:12:48.534Z,13.62
2018-04-25T04:13:19.751Z,13.20
2018-04-25T04:13:50.973Z,14.60
2018-04-25T04:14:22.207Z,13.93
2018-04-25T04:14:53.432Z,15.05
2018-04-25T04:15:24.721Z,14.65
2018-04-25T04:15:55.928Z,14.13
2018-04-25T04:16:27.157Z,15.23
2018-04-25T04:16:58.362Z,14.18
2018-04-25T04:17:29.585Z,14.32
2018-04-25T04:18:00.856Z,15.60
2018-04-25T04:18:32.122Z,15.32
2018-04-25T04:19:03.334Z,15.55
2018-04-25T04:19:34.549Z,14.23
2018-04-25T04:20:05.775Z,15.70
2018-04-25T04:20:37.059Z,16.85
2018-04-25T04:21:08.276Z,16.58
2018-04-25T04:21:39.478Z,15.90
2018-04-25T04:22:10.688Z,17.60
2018-04-25T04:22:41.896Z,17.98
2018-04-25T04:23:13.134Z,17.27
2018-04-25T04:23:44.378Z,18.05
2018-04-25T04:24:15.585Z,17.95
2018-04-25T04:24:46.818Z,18.25
2018-04-25T04:25:18.060Z,18.92
2018-04-25T04:25:49.296Z,18.23
2018-04-25T04:26:20.500Z,19.50
2018-04-25T04:26:51.709Z,18.30
2018-04-25T04:27:22.916Z,20.00
2018-04-25T04:27:54.144Z,18.20
2018-04-25T04:28:25.687Z,19.00
2018-04-25T04:28:56.969Z,19.42
2018-04-25T04:29:28.191Z,19.37
2018-04-25T04:29:59.432Z,18.23
2018-04-25T04:30:30.656Z,17.80
2018-04-25T04:31:01.866Z,18.67
2018-04-25T04:31:33.085Z,18.95
2018-04-25T04:32:04.296Z,18.92
2018-04-25T04:32:35.524Z,17.83
2018-04-25T04:33:06.764Z,18.17
2018-04-25T04:33:37.969Z,16.87
2018-04-25T04:34:09.229Z,17.30
2018-04-25T04:34:40.430Z,18.42
2018-04-25T04:35:11.633Z,17.83
2018-04-25T04:35:42.850Z,16.00
2018-04-25T04:36:14.042Z,17.02
2018-04-25T04:36:45.250Z,16.33
2018-04-25T04:37:16.481Z,15.23
2018-04-25T04:37:47.715Z,15.48
2018-04-25T04:38:18.925Z,15.05
2018-04-25T04:38:50.139Z,14.55
2018-04-25T04:39:21.389Z,15.55
2018-04-25T04:39:52.612Z,15.15
2018-04-25T04:40:23.821Z,15.10
2018-04-25T04:40:55.073Z,14.80
2018-04-25T04:41:26.284Z,12.88
2018-04-25T04:41:57.512Z,12.60
2018-04-25T04:42:28.731Z,13.70
2018-04-25T04:42:59.992Z,12.02
2018-04-25T04:43:31.219Z,13.73
2018-04-25T04:44:02.442Z,13.60
2018-04-25T04:44:33.707Z,13.45
2018-04-25T04:45:04.921Z,12.10
2018-04-25T04:45:36.143Z,12.02
2018-04-25T04:46:07.370Z,11.60
2018-04-25T04:46:38.597Z,11.23
2018-04-25T04:47:09.816Z,11.48
2018-04-25T04:47:41.027Z,10.73
2018-04-25T04:48:12.277Z,11.40
2018-04-25T04:48:43.488Z,11.57
2018-04-25T04:49:14.696Z,11.40
2018-04-25T04:49:45.949Z,12.07
2018-04-25T04:50:17.170Z,11.35
2018-04-25T04:50:48.413Z,11.90
2018-04-25T04:51:19.632Z,12.18
2018-04-25T04:51:50.854Z,11.80
2018-04-25T04:52:22.089Z,12.07
2018-04-25T04:52:53.297Z,12.05
2018-04-25T04:53:24.513Z,10.75
2018-04-25T04:53:55.747Z,11.75
2018-04-25T04:54:27.003Z,10.57
2018-04-25T04:54:58.266Z,9.60
2018-04-25T04:55:29.529Z,10.23
2018-04-25T04:56:00.777Z,10.75
2018-04-25T04:56:31.995Z,11.73
2018-04-25T04:57:03.210Z,11.00
2018-04-25T04:57:34.426Z,11.35
2018-04-25T04:58:05.661Z,11.20
2018-04-25T04:58:36.895Z,10.90
2018-04-25T04:59:08.109Z,11.38
2018-04-25T04:59:39.373Z,11.18
2018-04-25T05:00:10.573Z,11.75
2018-04-25T05:00:41.855Z,11.27
2018-04-25T05:01:13.088Z,10.52
2018-04-25T05:01:44.310Z,10.25
2018-04-25T05:02:15.529Z,10.77
2018-04-25T05:02:46.755Z,9.98
2018-04-25T05:03:18.070Z,10.95
2018-04-25T05:03:49.328Z,10.30
2018-04-25T05:04:20.555Z,11.40
2018-04-25T05:04:51.778Z,11.70
2018-04-25T05:05:23.043Z,11.27
2018-04-25T05:05:54.265Z,11.63
2018-04-25T05:06:25.494Z,10.45
2018-04-25T05:06:56.717Z,11.80
2018-04-25T05:07:27.952Z,11.20
2018-04-25T05:07:59.174Z,11.10
2018-04-25T05:08:30.509Z,11.48
2018-04-25T05:09:01.708Z,11.70
2018-04-25T05:09:32.929Z,10.63
2018-04-25T05:10:04.149Z,11.93
2018-04-25T05:10:35.375Z,11.80
2018-04-25T05:11:06.639Z,11.90
2018-04-25T05:11:37.863Z,11.48
2018-04-25T05:12:09.076Z,11.12
2018-04-25T05:12:40.292Z,11.75
2018-04-25T05:13:11.571Z,11.75
2018-04-25T05:13:42.807Z,10.90
2018-04-25T05:14:14.026Z,12.37
2018-04-25T05:14:45.301Z,11.80
2018-04-25T05:15:16.540Z,11.77
2018-04-25T05:15:47.789Z,12.65
2018-04-25T05:16:19.053Z,11.65
2018-04-25T05:16:50.305Z,12.25
2018-04-25T05:17:21.531Z,12.43
2018-04-25T05:17:52.741Z,13.25
2018-04-25T05:18:23.968Z,12.00
2018-04-25T05:18:55.175Z,13.48
2018-04-25T05:19:26.429Z,13.70
2018-04-25T05:19:57.645Z,13.60
2018-04-25T05:20:28.852Z,14.60
2018-04-25T05:21:00.176Z,13.43
2018-04-25T05:21:31.436Z,14.20
2018-04-25T05:22:02.696Z,14.00
2018-04-25T05:22:33.919Z,13.48
2018-04-25T05:23:05.136Z,12.77
2018-04-25T05:23:36.432Z,13.50
2018-04-25T05:24:07.653Z,13.32
2018-04-25T05:24:38.949Z,13.17
2018-04-25T05:25:10.157Z,13.20
2018-04-25T05:25:41.404Z,14.05
2018-04-25T05:26:12.656Z,12.90
2018-04-25T05:26:43.880Z,13.50
2018-04-25T05:27:15.093Z,12.30
2018-04-25T05:27:46.328Z,12.60
2018-04-25T05:28:17.536Z,13.60
2018-04-25T05:28:48.781Z,12.80
2018-04-25T05:29:20.037Z,12.87
2018-04-25T05:29:51.273Z,13.27
2018-04-25T05:30:22.489Z,12.97
2018-04-25T05:30:53.705Z,12.57
2018-04-25T05:31:24.975Z,13.20
2018-04-25T05:31:56.197Z,12.40
2018-04-25T05:32:27.462Z,12.98
2018-04-25T05:32:58.693Z,13.38
2018-04-25T05:33:29.916Z,12.82
2018-04-25T05:34:01.113Z,12.80
2018-04-25T05:34:32.304Z,12.27
2018-04-25T05:35:03.523Z,12.37
2018-04-25T05:35:34.733Z,12.33
2018-04-25T05:36:05.958Z,12.13
2018-04-25T05:36:37.172Z,11.20
2018-04-25T05:37:08.439Z,12.17
2018-04-25T05:37:39.649Z,12.02
2018-04-25T05:38:10.866Z,10.77
2018-04-25T05:38:42.104Z,12.17
2018-04-25T05:39:13.337Z,11.20
2018-04-25T05:39:44.548Z,11.57
2018-04-25T05:40:15.754Z,11.20
2018-04-25T05:40:46.960Z,11.17
2018-04-25T05:41:18.167Z,11.30
2018-04-25T05:41:49.373Z,11.33
2018-04-25T05:42:20.649Z,12.10
2018-04-25T05:42:51.877Z,12.50
2018-04-25T05:43:23.103Z,12.55
2018-04-25T05:43:54.410Z,11.80
2018-04-25T05:44:25.670Z,11.83
2018-04-25T05:44:56.918Z,12.13
2018-04-25T05:45:28.182Z,12.33
2018-04-25T05:45:59.386Z,12.60
2018-04-25T05:46:30.645Z,13.40
2018-04-25T05:47:01.876Z,11.40
2018-04-25T05:47:33.091Z,12.10
2018-04-25T05:48:04.307Z,12.07
2018-04-25T05:48:35.538Z,11.43
2018-04-25T05:49:06.764Z,11.87
2018-04-25T05:49:37.988Z,11.10
2018-04-25T05:50:09.245Z,11.73
2018-04-25T05:50:40.522Z,12.13
2018-04-25T05:51:11.763Z,11.03
2018-04-25T05:51:43.088Z,12.40
2018-04-25T05:52:14.281Z,11.07
2018-04-25T05:52:45.493Z,10.97
2018-04-25T05:53:16.716Z,11.27
2018-04-25T05:53:48.000Z,11.70
2018-04-25T05:54:19.203Z,11.73
2018-04-25T05:54:50.443Z,10.77
2018-04-25T05:55:21.683Z,10.77
2018-04-25T05:55:52.911Z,10.10
2018-04-25T05:56:24.191Z,10.67
2018-04-25T05:56:55.422Z,10.53
2018-04-25T05:57:26.652Z,10.00
2018-04-25T05:57:57.879Z,9.90
2018-04-25T05:58:29.129Z,9.60
2018-04-25T05:59:00.410Z,10.33
2018-04-25T05:59:31.633Z,9.80
2018-04-25T06:00:02.876Z,9.73
2018-04-25T06:00:34.101Z,8.83
2018-04-25T06:01:05.366Z,10.20
2018-04-25T06:01:36.612Z,9.63
2018-04-25T06:02:08.838Z,9.90
2018-04-25T06:02:40.871Z,9.90
2018-04-25T06:03:12.203Z,10.35
2018-04-25T06:03:43.483Z,10.55
2018-04-25T06:04:14.722Z,9.85
2018-04-25T06:04:46.727Z,10.02
2018-04-25T06:05:18.019Z,10.25
2018-04-25T06:05:49.246Z,10.57
2018-04-25T06:06:20.464Z,10.40
2018-04-25T06:06:51.714Z,10.00
2018-04-25T06:07:22.955Z,10.35
2018-04-25T06:07:54.174Z,9.18
2018-04-25T06:08:25.455Z,9.83
2018-04-25T06:08:56.666Z,10.10
2018-04-25T06:09:28.485Z,9.27
2018-04-25T06:09:59.718Z,9.32
2018-04-25T06:10:30.927Z,9.00
2018-04-25T06:11:02.166Z,9.90
2018-04-25T06:11:33.460Z,9.73
2018-04-25T06:12:04.678Z,9.97
2018-04-25T06:12:35.927Z,11.37
2018-04-25T06:13:07.163Z,11.37
2018-04-25T06:13:38.402Z,10.87
2018-04-25T06:14:09.623Z,9.27
2018-04-25T06:14:40.843Z,10.07
2018-04-25T06:15:12.093Z,8.87
2018-04-25T06:15:43.325Z,9.33
2018-04-25T06:16:14.600Z,10.07
2018-04-25T06:16:45.811Z,9.20
2018-04-25T06:17:17.025Z,8.93
2018-04-25T06:17:48.233Z,8.80
2018-04-25T06:18:19.441Z,8.53
2018-04-25T06:18:50.652Z,9.20
2018-04-25T06:19:21.899Z,8.43
2018-04-25T06:19:53.126Z,9.47
2018-04-25T06:20:24.409Z,9.03
2018-04-25T06:20:55.653Z,8.77
2018-04-25T06:21:26.944Z,9.43
2018-04-25T06:21:58.204Z,9.17
2018-04-25T06:22:29.524Z,9.30
2018-04-25T06:23:00.752Z,9.80
2018-04-25T06:23:31.969Z,9.93
2018-04-25T06:24:03.187Z,9.57
2018-04-25T06:24:34.419Z,8.87
2018-04-25T06:25:05.650Z,8.97
2018-04-25T06:25:36.915Z,9.40
2018-04-25T06:26:08.123Z,9.03
2018-04-25T06:26:39.375Z,9.40
2018-04-25T06:27:10.565Z,9.43
2018-04-25T06:27:41.836Z,9.05
2018-04-25T06:28:13.207Z,8.77
2018-04-25T06:28:44.375Z,9.10
2018-04-25T06:29:15.596Z,9.33
2018-04-25T06:29:46.956Z,8.80
2018-04-25T06:30:18.169Z,9.13
2018-04-25T06:30:49.398Z,8.93
2018-04-25T06:31:20.615Z,8.53
2018-04-25T06:31:51.827Z,9.00
2018-04-25T06:32:23.046Z,7.93
2018-04-25T06:32:54.252Z,8.00
2018-04-25T06:33:25.483Z,7.93
2018-04-25T06:33:56.709Z,9.03
2018-04-25T06:34:27.910Z,8.47
2018-04-25T06:35:00.361Z,8.17
2018-04-25T06:35:31.574Z,8.10
2018-04-25T06:36:02.859Z,8.07
2018-04-25T06:36:34.071Z,7.90
2018-04-25T06:37:05.335Z,8.10
2018-04-25T06:37:36.553Z,7.70
2018-04-25T06:38:07.776Z,7.83
2018-04-25T06:38:39.038Z,8.20
2018-04-25T06:39:10.303Z,7.83
2018-04-25T06:39:41.517Z,7.53
2018-04-25T06:40:13.396Z,7.27
2018-04-25T06:40:44.635Z,7.00
2018-04-25T06:41:15.866Z,7.57
2018-04-25T06:41:47.066Z,7.33
2018-04-25T06:42:18.256Z,8.00
2018-04-25T06:42:49.488Z,6.53
2018-04-25T06:43:20.719Z,7.30
2018-04-25T06:43:51.973Z,6.80
2018-04-25T06:44:23.208Z,7.17
2018-04-25T06:44:54.517Z,6.83
2018-04-25T06:45:25.711Z,7.17
2018-04-25T06:45:56.907Z,6.93
2018-04-25T06:46:28.114Z,7.03